createdAt,value
2023-04-26T00:01:09.848Z,6.20
2023-04-26T00:03:43.675Z,5.18
2023-04-26T00:06:17.428Z,6.90
2023-04-26T00:08:51.203Z,6.25
2023-04-26T00:11:24.909Z,6.13
2023-04-26T00:14:00.752Z,6.35
2023-04-26T00:16:35.778Z,7.35
2023-04-26T00:19:10.429Z,7.25
2023-04-26T00:21:43.931Z,7.07
2023-04-26T00:24:17.666Z,6.05
2023-04-26T00:26:51.116Z,5.75
2023-04-26T00:29:24.926Z,7.35
2023-04-26T00:32:00.773Z,5.32
2023-04-26T00:34:34.926Z,6.07
2023-04-26T00:37:08.474Z,5.85
2023-04-26T00:39:41.947Z,6.05
2023-04-26T00:42:15.432Z,5.13
2023-04-26T00:44:50.366Z,5.47
2023-04-26T00:47:27.002Z,5.63
2023-04-26T00:50:01.818Z,4.90
2023-04-26T00:52:35.335Z,4.93
2023-04-26T00:55:10.420Z,4.95
2023-04-26T00:57:46.044Z,4.72
2023-04-26T01:00:19.706Z,4.47
2023-04-26T01:02:55.015Z,4.32
2023-04-26T01:05:28.728Z,4.35
2023-04-26T01:08:04.742Z,5.78
2023-04-26T01:10:38.487Z,4.05
2023-04-26T01:13:13.105Z,4.47
2023-04-26T01:15:47.605Z,3.90
2023-04-26T01:18:22.489Z,4.05
2023-04-26T01:20:57.225Z,3.88
2023-04-26T01:23:32.088Z,3.78
2023-04-26T01:26:05.704Z,3.63
2023-04-26T01:28:39.313Z,3.40
2023-04-26T01:31:12.941Z,3.17
2023-04-26T01:33:46.460Z,3.40
2023-04-26T01:36:19.931Z,4.13
2023-04-26T01:38:54.789Z,4.38
2023-04-26T01:41:28.551Z,3.53
2023-04-26T01:44:02.092Z,3.95
2023-04-26T01:46:35.580Z,4.40
2023-04-26T01:49:09.080Z,5.20
2023-04-26T01:51:42.913Z,3.50
2023-04-26T01:54:17.756Z,3.83
2023-04-26T01:56:51.275Z,4.72
2023-04-26T01:59:24.803Z,3.83
2023-04-26T02:01:58.333Z,3.97
2023-04-26T02:04:31.892Z,4.15
2023-04-26T02:07:05.396Z,3.65
2023-04-26T02:09:40.450Z,4.72
2023-04-26T02:12:15.413Z,4.00
2023-04-26T02:14:48.968Z,4.90
2023-04-26T02:17:22.869Z,4.70
2023-04-26T02:19:56.849Z,4.68
2023-04-26T02:22:31.298Z,5.07
2023-04-26T02:25:07.038Z,4.82
2023-04-26T02:27:41.091Z,3.28
2023-04-26T02:30:14.735Z,4.55
2023-04-26T02:32:48.673Z,3.22
2023-04-26T02:35:22.281Z,3.58
2023-04-26T02:37:55.966Z,3.45
2023-04-26T02:40:31.325Z,4.00
2023-04-26T02:43:04.928Z,3.60
2023-04-26T02:45:43.752Z,4.00
2023-04-26T02:48:19.293Z,3.30
2023-04-26T02:50:53.246Z,4.35
2023-04-26T02:53:26.770Z,3.33
2023-04-26T02:56:03.882Z,3.30
2023-04-26T02:58:37.453Z,3.28
2023-04-26T03:01:13.885Z,3.13
2023-04-26T03:03:48.924Z,2.67
2023-04-26T03:06:22.482Z,3.45
2023-04-26T03:08:55.988Z,3.15
2023-04-26T03:11:30.878Z,4.30
2023-04-26T03:14:04.667Z,3.92
2023-04-26T03:16:43.694Z,3.97
2023-04-26T03:19:17.186Z,2.65
2023-04-26T03:21:50.945Z,3.15
2023-04-26T03:24:24.559Z,3.17
2023-04-26T03:27:00.126Z,2.60
2023-04-26T03:29:33.695Z,3.75
2023-04-26T03:32:07.459Z,3.38
2023-04-26T03:34:41.301Z,3.00
2023-04-26T03:37:14.828Z,3.45
2023-04-26T03:39:52.578Z,3.15
2023-04-26T03:42:30.123Z,3.58
2023-04-26T03:45:04.128Z,2.63
2023-04-26T03:47:38.051Z,5.05
2023-04-26T03:50:12.138Z,3.63
2023-04-26T03:52:45.731Z,2.78
2023-04-26T03:55:19.277Z,3.35
2023-04-26T03:57:55.051Z,3.50
2023-04-26T04:00:29.607Z,3.22
2023-04-26T04:03:03.460Z,3.42
2023-04-26T04:05:37.394Z,4.22
2023-04-26T04:08:10.956Z,3.85
2023-04-26T04:10:44.461Z,2.47
2023-04-26T04:13:19.344Z,2.80
2023-04-26T04:15:53.741Z,3.13
2023-04-26T04:18:27.573Z,2.58
2023-04-26T04:21:01.085Z,2.67
2023-04-26T04:23:34.608Z,2.97
2023-04-26T04:26:12.872Z,3.17
2023-04-26T04:28:48.708Z,3.53
2023-04-26T04:31:23.292Z,3.38
2023-04-26T04:33:56.840Z,3.10
2023-04-26T04:36:31.059Z,2.90
2023-04-26T04:39:04.810Z,3.50
2023-04-26T04:41:38.420Z,2.63
2023-04-26T04:44:13.363Z,2.97
2023-04-26T04:46:47.517Z,2.95
2023-04-26T04:49:21.233Z,3.08
2023-04-26T04:51:54.955Z,2.88
2023-04-26T04:54:29.776Z,2.25
2023-04-26T04:57:04.280Z,2.03
2023-04-26T04:59:40.397Z,2.47
2023-04-26T05:02:14.426Z,3.15
2023-04-26T05:04:48.223Z,2.50
2023-04-26T05:07:23.278Z,2.28
2023-04-26T05:10:00.053Z,2.47
2023-04-26T05:12:33.756Z,2.33
2023-04-26T05:15:10.215Z,2.70
2023-04-26T05:17:44.006Z,3.15
2023-04-26T05:20:26.140Z,1.90
2023-04-26T05:22:59.738Z,2.38
2023-04-26T05:25:33.207Z,1.80
2023-04-26T05:28:19.790Z,2.25
2023-04-26T05:31:21.609Z,1.92
2023-04-26T05:34:12.521Z,2.63
2023-04-26T05:36:47.321Z,2.67
2023-04-26T05:39:21.361Z,3.30
2023-04-26T05:41:54.872Z,2.92
2023-04-26T05:44:28.672Z,2.92
2023-04-26T05:47:03.890Z,2.75
2023-04-26T05:49:37.734Z,3.90
2023-04-26T05:52:11.854Z,3.20
2023-04-26T05:54:45.407Z,3.33
2023-04-26T05:57:19.614Z,3.63
2023-04-26T05:59:54.121Z,2.97
2023-04-26T06:02:29.906Z,2.28
2023-04-26T06:05:04.941Z,2.42
2023-04-26T06:07:39.508Z,3.08
2023-04-26T06:10:13.558Z,2.08
2023-04-26T06:12:47.821Z,2.75
2023-04-26T06:15:21.398Z,2.88
2023-04-26T06:17:56.351Z,2.65
2023-04-26T06:20:29.912Z,2.03
2023-04-26T06:23:03.472Z,2.42
2023-04-26T06:25:37.207Z,2.65
2023-04-26T06:28:11.128Z,2.13
2023-04-26T06:30:44.725Z,2.08
2023-04-26T06:33:19.712Z,2.30
2023-04-26T06:35:53.508Z,2.42
2023-04-26T06:38:27.067Z,2.15
2023-04-26T06:41:00.699Z,1.70
2023-04-26T06:43:34.309Z,1.70
2023-04-26T06:46:14.370Z,1.88
2023-04-26T06:48:49.342Z,2.38
2023-04-26T06:51:22.835Z,2.70
2023-04-26T06:53:59.027Z,3.00
2023-04-26T06:56:32.671Z,2.08
2023-04-26T06:59:07.079Z,2.22
2023-04-26T07:01:41.283Z,2.05
2023-04-26T07:04:18.880Z,1.83
2023-04-26T07:06:52.803Z,1.73
2023-04-26T07:09:26.506Z,1.95
2023-04-26T07:12:00.128Z,1.98
2023-04-26T07:14:37.169Z,2.13
2023-04-26T07:17:12.410Z,2.03
2023-04-26T07:19:47.632Z,1.45
2023-04-26T07:22:21.574Z,1.48
2023-04-26T07:24:55.206Z,2.00
2023-04-26T07:27:28.752Z,1.63
2023-04-26T07:30:02.440Z,1.88
2023-04-26T07:32:36.510Z,1.98
2023-04-26T07:35:16.363Z,1.60
2023-04-26T07:37:49.989Z,1.38
2023-04-26T07:40:26.226Z,1.73
2023-04-26T07:43:00.227Z,2.05
2023-04-26T07:45:34.213Z,1.58
2023-04-26T07:48:08.141Z,1.88
2023-04-26T07:50:44.001Z,1.63
2023-04-26T07:53:17.557Z,1.75
2023-04-26T07:55:51.617Z,1.73
2023-04-26T07:58:25.100Z,1.60
2023-04-26T08:00:58.612Z,1.65
2023-04-26T08:03:32.581Z,1.35
2023-04-26T08:06:08.901Z,1.67
2023-04-26T08:08:45.330Z,1.40
2023-04-26T08:11:19.021Z,1.67
2023-04-26T08:13:52.895Z,2.22
2023-04-26T08:16:26.780Z,1.38
2023-04-26T08:19:02.979Z,1.70
2023-04-26T08:21:38.035Z,2.38
2023-04-26T08:24:11.606Z,1.35
2023-04-26T08:26:45.293Z,2.00
2023-04-26T08:29:19.156Z,1.83
2023-04-26T08:31:52.813Z,1.00
2023-04-26T08:34:28.323Z,1.30
2023-04-26T08:37:03.231Z,1.33
2023-04-26T08:39:36.770Z,0.98
2023-04-26T08:42:16.128Z,1.58
2023-04-26T08:44:49.969Z,1.15
2023-04-26T08:47:31.678Z,1.88
2023-04-26T08:50:06.347Z,1.38
2023-04-26T08:52:42.290Z,1.70
2023-04-26T08:55:17.391Z,1.55
2023-04-26T08:57:51.859Z,1.98
2023-04-26T09:00:25.929Z,2.72
2023-04-26T09:02:59.478Z,1.73
2023-04-26T09:05:34.459Z,1.83
2023-04-26T09:08:10.032Z,1.45
2023-04-26T09:10:43.562Z,1.85
2023-04-26T09:13:16.995Z,1.63
2023-04-26T09:15:50.890Z,1.17
2023-04-26T09:18:26.707Z,1.33
2023-04-26T09:21:05.133Z,1.58
2023-04-26T09:23:58.449Z,0.95
2023-04-26T09:26:32.157Z,1.15
2023-04-26T09:29:16.194Z,1.60
2023-04-26T09:31:51.126Z,1.20
2023-04-26T09:34:24.615Z,1.85
2023-04-26T09:36:58.772Z,2.58
2023-04-26T09:39:37.351Z,1.60
2023-04-26T09:42:11.977Z,3.03
2023-04-26T09:44:46.433Z,1.75
2023-04-26T09:47:23.175Z,1.20
2023-04-26T09:49:56.865Z,2.03
2023-04-26T09:52:30.460Z,1.38
2023-04-26T09:55:06.366Z,1.60
2023-04-26T09:57:45.290Z,1.30
2023-04-26T10:00:19.610Z,1.45
2023-04-26T10:02:54.614Z,1.60
2023-04-26T10:05:28.345Z,1.80
2023-04-26T10:08:03.467Z,2.40
2023-04-26T10:10:39.329Z,1.63
2023-04-26T10:13:13.858Z,1.27
2023-04-26T10:15:48.933Z,1.75
2023-04-26T10:18:22.449Z,1.50
2023-04-26T10:20:59.240Z,1.30
2023-04-26T10:23:33.329Z,1.42
2023-04-26T10:26:08.568Z,1.15
2023-04-26T10:29:02.905Z,1.38
2023-04-26T10:32:09.570Z,1.67
2023-04-26T10:34:44.364Z,1.23
2023-04-26T10:37:18.424Z,1.95
2023-04-26T10:39:51.980Z,1.58
2023-04-26T10:42:28.414Z,3.03
2023-04-26T10:45:22.149Z,1.50
2023-04-26T10:48:17.488Z,1.60
2023-04-26T10:51:12.399Z,1.33
2023-04-26T10:54:02.309Z,0.98
2023-04-26T10:56:53.065Z,1.40
2023-04-26T10:59:43.324Z,1.23
2023-04-26T11:02:46.357Z,1.48
2023-04-26T11:05:35.787Z,1.25
2023-04-26T11:08:15.972Z,1.40
2023-04-26T11:10:54.062Z,1.05
2023-04-26T11:13:27.531Z,1.33
2023-04-26T11:16:04.955Z,1.65
2023-04-26T11:18:40.237Z,1.77
2023-04-26T11:21:18.160Z,1.45
2023-04-26T11:23:55.369Z,1.77
2023-04-26T11:26:36.616Z,1.25
2023-04-26T11:29:13.478Z,1.50
2023-04-26T11:31:54.469Z,1.38
2023-04-26T11:34:34.377Z,2.30
2023-04-26T11:37:08.761Z,2.30
2023-04-26T11:39:42.359Z,1.88
2023-04-26T11:42:15.917Z,1.48
2023-04-26T11:44:52.785Z,1.65
2023-04-26T11:47:30.826Z,1.02
2023-04-26T11:50:04.782Z,1.27
2023-04-26T11:52:39.821Z,1.08
2023-04-26T11:55:13.338Z,1.17
2023-04-26T11:57:46.855Z,1.70
2023-04-26T12:00:21.224Z,1.73
2023-04-26T12:02:57.543Z,1.45
2023-04-26T12:05:31.602Z,1.50
2023-04-26T12:08:05.536Z,1.45
2023-04-26T12:10:40.185Z,1.55
2023-04-26T12:13:16.322Z,1.70
2023-04-26T12:15:51.379Z,1.20
2023-04-26T12:18:32.462Z,1.40
2023-04-26T12:21:06.555Z,1.20
2023-04-26T12:23:41.952Z,1.75
2023-04-26T12:26:15.858Z,1.15
2023-04-26T12:28:49.440Z,0.80
2023-04-26T12:31:23.072Z,1.20
2023-04-26T12:33:58.022Z,1.27
2023-04-26T12:36:31.720Z,1.13
2023-04-26T12:39:06.882Z,1.42
2023-04-26T12:41:40.816Z,1.30
2023-04-26T12:44:15.079Z,1.27
2023-04-26T12:46:48.738Z,1.52
2023-04-26T12:49:23.991Z,1.38
2023-04-26T12:51:57.517Z,1.00
2023-04-26T12:54:31.129Z,1.23
2023-04-26T12:57:05.314Z,1.35
2023-04-26T12:59:38.836Z,1.35
2023-04-26T13:02:12.558Z,1.35
2023-04-26T13:04:47.859Z,0.98
2023-04-26T13:07:22.145Z,1.08
2023-04-26T13:09:55.810Z,2.20
2023-04-26T13:12:29.420Z,1.10
2023-04-26T13:15:02.982Z,1.27
2023-04-26T13:17:37.681Z,0.93
2023-04-26T13:20:13.917Z,1.50
2023-04-26T13:22:47.610Z,1.58
2023-04-26T13:25:21.421Z,1.63
2023-04-26T13:27:55.565Z,1.88
2023-04-26T13:30:29.087Z,2.75
2023-04-26T13:33:02.605Z,1.77
2023-04-26T13:35:37.608Z,1.42
2023-04-26T13:38:11.966Z,0.95
2023-04-26T13:40:45.777Z,1.88
2023-04-26T13:43:19.297Z,1.00
2023-04-26T13:45:53.000Z,1.50
2023-04-26T13:48:26.781Z,1.58
2023-04-26T13:51:03.621Z,2.25
2023-04-26T13:53:38.617Z,1.50
2023-04-26T13:56:12.206Z,1.60
2023-04-26T13:58:45.756Z,1.73
2023-04-26T14:01:19.303Z,1.95
2023-04-26T14:03:55.090Z,1.20
2023-04-26T14:06:32.717Z,0.95
2023-04-26T14:09:07.021Z,1.13
2023-04-26T14:11:40.485Z,1.73
2023-04-26T14:14:13.986Z,1.17
2023-04-26T14:16:47.496Z,1.30
2023-04-26T14:19:21.495Z,0.95
2023-04-26T14:21:56.421Z,1.15
2023-04-26T14:24:29.977Z,1.73
2023-04-26T14:27:03.762Z,0.93
2023-04-26T14:29:37.346Z,0.98
2023-04-26T14:32:11.181Z,1.10
2023-04-26T14:34:45.453Z,1.52
2023-04-26T14:37:22.920Z,1.30
2023-04-26T14:39:56.589Z,1.30
2023-04-26T14:42:30.483Z,1.63
2023-04-26T14:45:04.410Z,2.45
2023-04-26T14:47:38.954Z,1.40
2023-04-26T14:50:14.297Z,1.77
2023-04-26T14:52:49.380Z,1.65
2023-04-26T14:55:23.674Z,1.40
2023-04-26T14:57:57.367Z,2.08
2023-04-26T15:00:31.483Z,1.95
2023-04-26T15:03:05.314Z,1.40
2023-04-26T15:05:39.093Z,1.63
2023-04-26T15:08:14.573Z,1.50
2023-04-26T15:10:48.091Z,1.80
2023-04-26T15:13:21.663Z,2.10
2023-04-26T15:15:55.181Z,2.25
2023-04-26T15:18:28.828Z,1.42
2023-04-26T15:21:02.362Z,1.08
2023-04-26T15:23:37.395Z,2.22
2023-04-26T15:26:10.887Z,1.70
2023-04-26T15:28:44.401Z,1.50
2023-04-26T15:31:17.948Z,1.25
2023-04-26T15:33:51.567Z,1.40
2023-04-26T15:36:25.228Z,1.70
2023-04-26T15:39:00.221Z,1.35
2023-04-26T15:41:33.954Z,1.40
2023-04-26T15:44:07.403Z,1.52
2023-04-26T15:46:41.020Z,1.77
2023-04-26T15:49:14.620Z,1.55
2023-04-26T15:51:48.093Z,1.38
2023-04-26T15:54:22.938Z,1.90
2023-04-26T15:56:56.487Z,1.83
2023-04-26T15:59:30.773Z,1.20
2023-04-26T16:02:05.629Z,1.25
2023-04-26T16:04:40.297Z,1.42
2023-04-26T16:07:14.605Z,2.50
2023-04-26T16:09:49.497Z,0.82
2023-04-26T16:12:22.986Z,1.30
2023-04-26T16:14:56.466Z,1.60
2023-04-26T16:17:30.692Z,1.80
2023-04-26T16:20:07.053Z,1.85
2023-04-26T16:22:40.591Z,1.55
2023-04-26T16:25:16.793Z,1.73
2023-04-26T16:27:50.401Z,2.38
2023-04-26T16:30:24.103Z,1.63
2023-04-26T16:32:57.666Z,1.92
2023-04-26T16:35:31.189Z,1.60
2023-04-26T16:38:04.744Z,1.58
2023-04-26T16:40:39.678Z,1.42
2023-04-26T16:43:14.443Z,1.75
2023-04-26T16:45:47.915Z,2.25
2023-04-26T16:48:21.517Z,1.83
2023-04-26T16:50:55.226Z,1.55
2023-04-26T16:53:28.828Z,1.63
2023-04-26T16:56:03.701Z,1.90
2023-04-26T16:58:37.509Z,1.98
2023-04-26T17:01:10.989Z,1.52
2023-04-26T17:03:44.639Z,1.90
2023-04-26T17:06:18.269Z,2.33
2023-04-26T17:08:51.890Z,2.03
2023-04-26T17:11:26.744Z,2.47
2023-04-26T17:14:00.228Z,2.85
2023-04-26T17:16:33.674Z,2.55
2023-04-26T17:19:07.642Z,1.83
2023-04-26T17:21:41.167Z,2.35
2023-04-26T17:24:14.692Z,3.53
2023-04-26T17:26:49.540Z,3.25
2023-04-26T17:29:23.035Z,4.15
2023-04-26T17:31:56.534Z,3.42
2023-04-26T17:34:30.146Z,4.72
2023-04-26T17:37:03.897Z,5.55
2023-04-26T17:39:37.622Z,5.00
2023-04-26T17:42:12.686Z,3.67
2023-04-26T17:44:46.216Z,2.25
2023-04-26T17:47:19.689Z,2.85
2023-04-26T17:49:54.223Z,3.10
2023-04-26T17:52:28.039Z,2.22
2023-04-26T17:55:02.043Z,3.88
2023-04-26T17:57:36.993Z,2.53
2023-04-26T18:00:11.701Z,3.53
2023-04-26T18:02:45.403Z,3.58
2023-04-26T18:05:19.034Z,1.92
2023-04-26T18:07:52.888Z,3.05
2023-04-26T18:10:26.534Z,2.45
2023-04-26T18:13:01.824Z,1.58
2023-04-26T18:15:35.446Z,2.33
2023-04-26T18:18:09.128Z,1.42
2023-04-26T18:20:42.633Z,2.20
2023-04-26T18:23:16.431Z,1.55
2023-04-26T18:25:50.550Z,1.70
2023-04-26T18:28:25.504Z,1.83
2023-04-26T18:30:59.297Z,2.25
2023-04-26T18:33:33.285Z,2.88
2023-04-26T18:36:07.392Z,2.03
2023-04-26T18:38:40.888Z,2.13
2023-04-26T18:41:14.389Z,2.75
2023-04-26T18:43:56.454Z,2.38
2023-04-26T18:46:30.245Z,1.92
2023-04-26T18:49:03.778Z,2.00
2023-04-26T18:51:37.325Z,2.60
2023-04-26T18:54:10.812Z,3.13
2023-04-26T18:56:44.987Z,2.28
2023-04-26T18:59:20.104Z,2.00
2023-04-26T19:01:53.904Z,2.15
2023-04-26T19:04:27.719Z,2.10
2023-04-26T19:07:01.870Z,3.72
2023-04-26T19:09:50.383Z,7.38
2023-04-26T19:12:27.582Z,25.80
2023-04-26T19:15:02.674Z,30.45
2023-04-26T19:17:36.461Z,23.73
2023-04-26T19:20:13.140Z,12.38
2023-04-26T19:22:46.958Z,13.60
2023-04-26T19:25:23.094Z,26.63
2023-04-26T19:27:56.644Z,30.00
2023-04-26T19:30:32.017Z,17.70
2023-04-26T19:33:05.871Z,15.63
2023-04-26T19:35:39.518Z,12.65
2023-04-26T19:38:13.069Z,14.55
2023-04-26T19:40:46.736Z,15.20
2023-04-26T19:43:20.562Z,15.57
2023-04-26T19:45:57.320Z,14.50
2023-04-26T19:48:31.060Z,18.88
2023-04-26T19:51:04.633Z,17.83
2023-04-26T19:53:38.226Z,15.60
2023-04-26T19:56:11.971Z,13.90
2023-04-26T19:58:45.492Z,14.25
2023-04-26T20:01:20.491Z,15.43
2023-04-26T20:03:54.135Z,19.48
2023-04-26T20:06:27.841Z,18.88
2023-04-26T20:09:01.585Z,44.47
2023-04-26T20:11:35.458Z,34.75
2023-04-26T20:14:09.350Z,17.73
2023-04-26T20:16:44.448Z,10.68
2023-04-26T20:19:18.061Z,3.38
2023-04-26T20:21:51.683Z,4.30
2023-04-26T20:24:27.861Z,3.85
2023-04-26T20:27:02.063Z,4.97
2023-04-26T20:29:35.899Z,3.97
2023-04-26T20:32:10.867Z,5.05
2023-04-26T20:34:44.541Z,6.00
2023-04-26T20:37:18.050Z,6.20
2023-04-26T20:39:51.614Z,4.63
2023-04-26T20:42:25.532Z,4.00
2023-04-26T20:45:01.812Z,4.32
2023-04-26T20:47:38.354Z,4.68
2023-04-26T20:50:12.777Z,3.63
2023-04-26T20:52:47.176Z,2.72
2023-04-26T20:55:20.908Z,4.68
2023-04-26T20:57:54.368Z,3.13
2023-04-26T21:00:27.933Z,4.10
2023-04-26T21:03:02.891Z,6.85
2023-04-26T21:05:36.948Z,13.45
2023-04-26T21:08:10.407Z,12.43
2023-04-26T21:10:44.101Z,16.92
2023-04-26T21:13:17.636Z,6.43
2023-04-26T21:15:51.183Z,7.20
2023-04-26T21:18:26.211Z,12.55
2023-04-26T21:20:59.834Z,7.05
2023-04-26T21:23:33.441Z,4.00
2023-04-26T21:26:07.012Z,3.65
2023-04-26T21:28:40.506Z,4.50
2023-04-26T21:31:14.055Z,3.20
2023-04-26T21:33:48.955Z,3.45
2023-04-26T21:36:22.792Z,3.22
2023-04-26T21:38:56.574Z,3.05
2023-04-26T21:41:30.062Z,4.05
2023-04-26T21:44:03.603Z,8.57
2023-04-26T21:46:37.107Z,4.80
2023-04-26T21:49:12.206Z,4.38
2023-04-26T21:51:45.768Z,6.35
2023-04-26T21:54:19.244Z,3.13
2023-04-26T21:56:52.682Z,3.70
2023-04-26T21:59:26.121Z,2.80
2023-04-26T22:01:59.659Z,2.80
2023-04-26T22:04:34.523Z,3.25
2023-04-26T22:07:08.028Z,2.85
2023-04-26T22:09:41.461Z,3.85
2023-04-26T22:12:15.511Z,2.75
2023-04-26T22:14:48.976Z,3.10
2023-04-26T22:17:22.452Z,3.42
2023-04-26T22:19:57.319Z,2.95
2023-04-26T22:22:30.892Z,4.03
2023-04-26T22:25:04.596Z,3.20
2023-04-26T22:27:37.997Z,3.47
2023-04-26T22:30:23.068Z,2.88
2023-04-26T22:32:59.824Z,2.90
2023-04-26T22:35:36.464Z,3.72
2023-04-26T22:38:09.921Z,2.40
2023-04-26T22:40:43.788Z,2.90
2023-04-26T22:43:17.320Z,3.63
2023-04-26T22:45:51.025Z,2.55
2023-04-26T22:48:24.523Z,3.70
2023-04-26T22:51:00.063Z,3.75
2023-04-26T22:53:33.540Z,3.05
2023-04-26T22:56:07.589Z,3.17
2023-04-26T22:58:41.034Z,3.42
2023-04-26T23:01:14.523Z,4.25
2023-04-26T23:03:48.043Z,3.92
2023-04-26T23:06:23.484Z,3.55
2023-04-26T23:08:56.983Z,4.53
2023-04-26T23:11:31.075Z,4.95
2023-04-26T23:14:06.651Z,5.43
2023-04-26T23:16:40.722Z,5.35
2023-04-26T23:19:14.581Z,4.47
2023-04-26T23:21:49.725Z,4.53
2023-04-26T23:24:23.182Z,4.65
2023-04-26T23:26:56.633Z,4.18
2023-04-26T23:29:30.098Z,5.28
2023-04-26T23:32:03.597Z,3.42
2023-04-26T23:34:37.032Z,3.97
2023-04-26T23:37:11.872Z,4.53
2023-04-26T23:39:45.505Z,4.28
2023-04-26T23:42:19.117Z,4.82
2023-04-26T23:44:52.592Z,5.15
2023-04-26T23:47:26.883Z,4.85
2023-04-26T23:50:00.934Z,4.43
2023-04-26T23:52:35.936Z,4.38
2023-04-26T23:55:10.381Z,4.38
2023-04-26T23:57:43.844Z,5.70
